Terminal Aerodrome Forecast
Issued by NWS

Home | Current Version | Previous Version | Text Only | Print | Product List | Glossary On
Versions: 1 2 3 4 5 6 7 8 9 10 11 12 13 14 15
000
FTUS44 KBMX 172300
TAFMGM
TAF
KMGM 172325Z 1800/1824 09009KT P6SM BKN040
     FM180700 06012KT P6SM VCSH OVC025
     FM181000 06012G20KT 4SM -RA OVC012
     FM181200 06014G24KT 4SM -RA BR OVC007
     FM182000 04012G20KT 5SM -SHRA OVC015=

USA.gov is the U.S. government's official web portal to all federal, state and local government web resources and services.